Time;durP1;ratioP1;P1;durP2;ratioP2;P2;SDS_P1;SDS_P2;PMS_P1;PMS_P2;Temp;Humidity;BMP_temperature;BMP_pressure;BME280_temperature;BME280_humidity;BME280_pressure;Samples;Min_cycle;Max_cycle;Signal;HPM_P1;HPM_P2
2022/12/16 00:01:13;;;;;;;3.73;2.30;;;;;;;;;;5060310;27;88019;-53
2022/12/16 00:03:43;;;;;;;2.73;1.90;;;;;;;;;;5060338;27;87814;-53
2022/12/16 00:06:12;;;;;;;3.23;2.07;;;;;;;;;;5059944;27;87185;-53
2022/12/16 00:08:40;;;;;;;2.53;1.83;;;;;;;;;;5062588;27;87054;-53
2022/12/16 00:11:08;;;;;;;5.10;2.03;;;;;;;;;;5059473;27;90159;-53
2022/12/16 00:13:37;;;;;;;1.60;1.50;;;;;;;;;;5060098;27;88874;-53
2022/12/16 00:16:05;;;;;;;4.10;3.23;;;;;;;;;;5059762;27;87076;-53
2022/12/16 00:18:35;;;;;;;4.03;2.57;;;;;;;;;;5059744;27;87065;-53
2022/12/16 00:21:05;;;;;;;4.23;2.80;;;;;;;;;;5059202;27;89086;-52
2022/12/16 00:23:33;;;;;;;5.57;3.50;;;;;;;;;;5059501;27;88918;-53
2022/12/16 00:26:02;;;;;;;5.00;3.40;;;;;;;;;;5060035;27;86940;-53
2022/12/16 00:28:31;;;;;;;7.03;3.80;;;;;;;;;;5060051;27;86765;-53
2022/12/16 00:30:59;;;;;;;6.30;4.10;;;;;;;;;;5062986;27;88181;-53
2022/12/16 00:33:27;;;;;;;7.00;5.07;;;;;;;;;;5061883;27;87738;-53
2022/12/16 00:35:56;;;;;;;6.57;4.20;;;;;;;;;;5063693;27;87859;-53
2022/12/16 00:38:26;;;;;;;7.13;4.73;;;;;;;;;;5064283;27;86962;-53
2022/12/16 00:40:54;;;;;;;6.13;4.17;;;;;;;;;;5064072;27;88304;-53
2022/12/16 00:43:23;;;;;;;5.07;3.47;;;;;;;;;;5064011;27;88792;-53
2022/12/16 00:45:51;;;;;;;5.30;3.83;;;;;;;;;;5064007;27;86790;-53
2022/12/16 00:48:21;;;;;;;7.00;4.23;;;;;;;;;;5065305;27;87070;-53
2022/12/16 00:50:50;;;;;;;5.70;3.63;;;;;;;;;;5064289;27;88040;-53
2022/12/16 00:53:19;;;;;;;5.93;3.33;;;;;;;;;;5063860;27;87756;-53
2022/12/16 00:55:48;;;;;;;7.17;3.50;;;;;;;;;;5064023;27;86955;-53
2022/12/16 00:58:17;;;;;;;6.23;3.60;;;;;;;;;;5062931;27;87125;-53
2022/12/16 01:00:46;;;;;;;4.40;3.50;;;;;;;;;;5055415;27;90200;-53
2022/12/16 01:03:14;;;;;;;4.20;2.70;;;;;;;;;;5043962;27;89986;-53
2022/12/16 01:05:49;;;;;;;6.10;3.33;;;;;;;;;;5058034;27;87039;-53
2022/12/16 01:08:17;;;;;;;2.73;2.17;;;;;;;;;;5046555;27;87028;-53
2022/12/16 01:10:51;;;;;;;5.90;2.60;;;;;;;;;;5057408;27;88251;-53
2022/12/16 01:13:23;;;;;;;4.10;2.53;;;;;;;;;;5062389;27;88291;-53
2022/12/16 01:15:51;;;;;;;3.50;2.00;;;;;;;;;;5063243;27;87011;-53
2022/12/16 01:18:19;;;;;;;2.80;2.00;;;;;;;;;;5058923;27;86272;-53
2022/12/16 01:20:48;;;;;;;2.73;2.00;;;;;;;;;;5063770;27;86890;-53
2022/12/16 01:23:16;;;;;;;2.33;1.87;;;;;;;;;;5044479;27;88646;-53
2022/12/16 01:25:44;;;;;;;3.90;2.13;;;;;;;;;;5047059;27;88232;-53
2022/12/16 01:28:14;;;;;;;3.80;2.03;;;;;;;;;;5043175;27;87105;-53
2022/12/16 01:30:42;;;;;;;2.80;2.13;;;;;;;;;;5043911;27;88387;-53
2022/12/16 01:33:11;;;;;;;2.40;1.73;;;;;;;;;;5042279;27;87905;-53
2022/12/16 01:35:39;;;;;;;2.47;2.10;;;;;;;;;;5049337;27;86892;-53
2022/12/16 01:38:23;;;;;;;2.77;1.97;;;;;;;;;;5063469;27;86973;-53
2022/12/16 01:40:52;;;;;;;1.60;1.30;;;;;;;;;;5045738;27;89177;-53
2022/12/16 01:43:25;;;;;;;2.07;1.70;;;;;;;;;;5046515;27;88973;-53
2022/12/16 01:45:53;;;;;;;2.77;1.77;;;;;;;;;;5041660;27;87021;-53
2022/12/16 01:48:23;;;;;;;1.90;1.03;;;;;;;;;;5055014;27;87092;-53
2022/12/16 01:50:51;;;;;;;1.67;1.37;;;;;;;;;;5042391;27;88601;-53
2022/12/16 01:53:20;;;;;;;1.37;1.23;;;;;;;;;;5043729;27;88630;-53
2022/12/16 01:55:49;;;;;;;1.93;1.40;;;;;;;;;;5045931;27;87059;-53
2022/12/16 01:58:18;;;;;;;2.47;1.30;;;;;;;;;;5051818;27;88189;-53
2022/12/16 02:00:47;;;;;;;1.93;1.20;;;;;;;;;;5043475;27;89117;-53
2022/12/16 02:03:16;;;;;;;1.47;1.00;;;;;;;;;;5044106;27;87948;-53
2022/12/16 02:05:44;;;;;;;2.00;1.50;;;;;;;;;;5057896;27;86965;-53
2022/12/16 02:08:13;;;;;;;1.17;1.07;;;;;;;;;;5042938;27;86277;-53
2022/12/16 02:10:47;;;;;;;1.00;0.90;;;;;;;;;;5062932;27;88097;-53
2022/12/16 02:13:19;;;;;;;1.63;0.93;;;;;;;;;;5060109;27;88884;-53
2022/12/16 02:15:50;;;;;;;1.87;1.10;;;;;;;;;;5062498;27;87909;-53
2022/12/16 02:18:21;;;;;;;1.37;1.27;;;;;;;;;;5049598;27;87017;-53
2022/12/16 02:20:58;;;;;;;0.90;0.80;;;;;;;;;;5049705;27;88126;-53
2022/12/16 02:23:32;;;;;;;1.53;1.20;;;;;;;;;;5051740;27;88864;-53
2022/12/16 02:26:07;;;;;;;1.37;0.90;;;;;;;;;;5043784;27;87015;-53
2022/12/16 02:28:40;;;;;;;0.73;0.73;;;;;;;;;;5041377;27;87102;-53
2022/12/16 02:31:16;;;;;;;2.03;0.90;;;;;;;;;;5041977;27;89010;-53
2022/12/16 02:33:47;;;;;;;0.87;0.70;;;;;;;;;;5042153;27;87740;-53
2022/12/16 02:36:18;;;;;;;1.33;1.10;;;;;;;;;;5041732;27;87127;-53
2022/12/16 02:38:49;;;;;;;1.07;0.80;;;;;;;;;;5041771;28;87535;-53
2022/12/16 02:41:25;;;;;;;1.00;0.63;;;;;;;;;;5041020;27;90146;-53
2022/12/16 02:43:54;;;;;;;1.17;0.73;;;;;;;;;;5042126;27;87448;-53
2022/12/16 02:46:24;;;;;;;0.97;0.70;;;;;;;;;;5042025;27;87418;-53
2022/12/16 02:48:53;;;;;;;4.47;0.60;;;;;;;;;;5047232;27;87113;-53
2022/12/16 02:51:21;;;;;;;1.27;0.87;;;;;;;;;;5057247;27;91737;-53
2022/12/16 02:53:50;;;;;;;1.57;0.90;;;;;;;;;;5044838;27;87819;-53
2022/12/16 02:56:22;;;;;;;1.50;0.90;;;;;;;;;;5046466;27;87109;-53
2022/12/16 02:58:51;;;;;;;0.80;0.60;;;;;;;;;;5042150;28;86342;-54
2022/12/16 03:01:20;;;;;;;1.00;0.80;;;;;;;;;;5050420;27;88857;-53
2022/12/16 03:03:50;;;;;;;0.77;0.73;;;;;;;;;;5055112;27;88890;-53
2022/12/16 03:06:19;;;;;;;0.93;0.40;;;;;;;;;;5053729;27;88011;-53
2022/12/16 03:08:48;;;;;;;0.50;0.50;;;;;;;;;;5049128;27;86986;-53
2022/12/16 03:11:16;;;;;;;0.97;0.63;;;;;;;;;;5048356;27;89378;-53
2022/12/16 03:13:45;;;;;;;0.73;0.70;;;;;;;;;;5050199;27;88633;-53
2022/12/16 03:16:14;;;;;;;0.63;0.63;;;;;;;;;;5056657;27;87074;-53
2022/12/16 03:18:44;;;;;;;1.13;0.60;;;;;;;;;;5061262;27;87031;-53
2022/12/16 03:21:13;;;;;;;1.07;0.87;;;;;;;;;;5056279;27;88187;-53
2022/12/16 03:23:43;;;;;;;0.77;0.50;;;;;;;;;;5050612;27;86414;-53
2022/12/16 03:26:14;;;;;;;0.60;0.60;;;;;;;;;;5041089;27;87118;-53
2022/12/16 03:28:44;;;;;;;0.57;0.57;;;;;;;;;;5043069;27;87061;-53
2022/12/16 03:31:16;;;;;;;0.50;0.50;;;;;;;;;;5040533;27;88654;-53
2022/12/16 03:33:46;;;;;;;0.60;0.60;;;;;;;;;;5041119;27;88489;-53
2022/12/16 03:36:17;;;;;;;0.70;0.60;;;;;;;;;;5041126;28;87041;-53
2022/12/16 03:38:45;;;;;;;0.50;0.50;;;;;;;;;;5041039;27;87879;-53
2022/12/16 03:41:14;;;;;;;0.67;0.33;;;;;;;;;;5040634;27;88052;-53
2022/12/16 03:43:42;;;;;;;0.73;0.53;;;;;;;;;;5040705;27;87768;-53
2022/12/16 03:46:10;;;;;;;0.87;0.50;;;;;;;;;;5040854;28;87053;-53
2022/12/16 03:48:45;;;;;;;0.40;0.40;;;;;;;;;;5041433;27;86152;-53
2022/12/16 03:51:14;;;;;;;0.57;0.57;;;;;;;;;;5056708;27;87178;-53
2022/12/16 03:53:44;;;;;;;0.57;0.40;;;;;;;;;;5045488;27;87822;-53
2022/12/16 03:56:13;;;;;;;0.30;0.30;;;;;;;;;;5060520;27;88135;-53
2022/12/16 03:58:42;;;;;;;0.50;0.50;;;;;;;;;;5057332;27;87038;-53
2022/12/16 04:01:10;;;;;;;0.53;0.40;;;;;;;;;;5059598;27;89501;-53
2022/12/16 04:03:39;;;;;;;0.57;0.53;;;;;;;;;;5061057;27;87064;-53
2022/12/16 04:06:07;;;;;;;0.63;0.50;;;;;;;;;;5054312;27;87201;-53
2022/12/16 04:08:36;;;;;;;0.77;0.50;;;;;;;;;;5062776;27;86995;-53
2022/12/16 04:24:58;;;;;;;0.10;0.10;;;;;;;;;;5049287;27;88769;-53
2022/12/16 04:27:28;;;;;;;0.50;0.50;;;;;;;;;;5062246;27;87054;-53
